Weather at General Bartolome Salom International Airport

Public forecast

Using degrees Celsius for public forecast. Weather courtesy of forecast.io.

Current aviation weather report (METAR) for General Bartolome Salom International Airport

Report is more than 6 hours old.

Retrieved 2019/12/24 13:00 UTC (9 months ago):

SVPC 241300Z 00000KT 9999 SCT020 XX/XX Q1011

Closest aviation forecast (TAF) to General Bartolome Salom International Airport

Forecast is more than 12 hours old.

Closest forecast is Arturo Michelena International Airport, 21.6 nm (40.0 km) SSE. Retrieved 2020/09/07 12:27 UTC (13 days ago):

TAF TAF SVVA 071122Z 0612/0712 09003KT 9999 FEW013 TX34/0616Z TN23/0710Z TEMPO 0616/0622 17004KT 9999 SCT016 TEMPO 0702/0708 21005KT 9999 SCT016 BKN250